sensor_id;sensor_type;location;lat;lon;timestamp;pressure;altitude;pressure_sealevel;temperature;humidity
38852;BME280;24605;50.092;9.182;2023-02-13T00:01:08;99978.22;;;6.02;100.00
38852;BME280;24605;50.092;9.182;2023-02-13T00:03:35;99979.25;;;6.00;100.00
38852;BME280;24605;50.092;9.182;2023-02-13T00:06:03;99970.63;;;6.14;100.00
38852;BME280;24605;50.092;9.182;2023-02-13T00:08:29;99968.38;;;6.07;100.00
38852;BME280;24605;50.092;9.182;2023-02-13T00:10:55;99971.00;;;6.07;100.00
38852;BME280;24605;50.092;9.182;2023-02-13T00:13:21;99965.03;;;6.05;100.00
38852;BME280;24605;50.092;9.182;2023-02-13T00:15:53;99971.09;;;6.20;100.00
38852;BME280;24605;50.092;9.182;2023-02-13T00:18:20;99960.84;;;6.17;100.00
38852;BME280;24605;50.092;9.182;2023-02-13T00:20:55;99959.56;;;6.10;100.00
38852;BME280;24605;50.092;9.182;2023-02-13T00:23:23;99966.88;;;6.18;100.00
38852;BME280;24605;50.092;9.182;2023-02-13T00:25:49;99963.03;;;5.94;100.00
38852;BME280;24605;50.092;9.182;2023-02-13T00:28:15;99968.66;;;6.03;100.00
38852;BME280;24605;50.092;9.182;2023-02-13T00:30:41;99966.81;;;5.89;100.00
38852;BME280;24605;50.092;9.182;2023-02-13T00:33:08;99971.66;;;5.95;100.00
38852;BME280;24605;50.092;9.182;2023-02-13T00:35:34;99969.75;;;6.13;100.00
38852;BME280;24605;50.092;9.182;2023-02-13T00:38:00;99969.31;;;5.90;100.00
38852;BME280;24605;50.092;9.182;2023-02-13T00:40:28;99967.38;;;5.94;100.00
38852;BME280;24605;50.092;9.182;2023-02-13T00:42:54;99966.81;;;5.89;100.00
38852;BME280;24605;50.092;9.182;2023-02-13T00:45:21;99958.81;;;5.92;100.00
38852;BME280;24605;50.092;9.182;2023-02-13T00:47:47;99966.63;;;5.92;100.00
38852;BME280;24605;50.092;9.182;2023-02-13T00:50:13;99959.41;;;5.97;100.00
38852;BME280;24605;50.092;9.182;2023-02-13T00:52:40;99957.97;;;6.07;100.00
38852;BME280;24605;50.092;9.182;2023-02-13T00:55:06;99957.97;;;6.07;100.00
38852;BME280;24605;50.092;9.182;2023-02-13T00:57:34;99960.00;;;6.02;100.00
38852;BME280;24605;50.092;9.182;2023-02-13T01:00:01;99966.34;;;5.96;100.00
38852;BME280;24605;50.092;9.182;2023-02-13T01:02:27;99959.47;;;5.95;100.00
38852;BME280;24605;50.092;9.182;2023-02-13T01:04:53;99948.81;;;6.00;100.00
38852;BME280;24605;50.092;9.182;2023-02-13T01:07:20;99954.09;;;5.99;100.00
38852;BME280;24605;50.092;9.182;2023-02-13T01:09:46;99957.59;;;5.99;100.00
38852;BME280;24605;50.092;9.182;2023-02-13T01:12:12;99954.72;;;6.04;100.00
38852;BME280;24605;50.092;9.182;2023-02-13T01:14:40;99953.41;;;5.80;100.00
38852;BME280;24605;50.092;9.182;2023-02-13T01:17:06;99946.31;;;5.83;100.00
38852;BME280;24605;50.092;9.182;2023-02-13T01:19:32;99946.91;;;6.04;100.00
38852;BME280;24605;50.092;9.182;2023-02-13T01:21:59;99954.13;;;5.83;100.00
38852;BME280;24605;50.092;9.182;2023-02-13T01:24:25;99953.59;;;5.61;100.00
38852;BME280;24605;50.092;9.182;2023-02-13T01:26:54;99959.06;;;5.57;100.00
38852;BME280;24605;50.092;9.182;2023-02-13T01:29:20;99948.84;;;5.54;100.00
38852;BME280;24605;50.092;9.182;2023-02-13T01:31:47;99948.50;;;5.60;100.00
38852;BME280;24605;50.092;9.182;2023-02-13T01:34:14;99946.66;;;5.46;100.00
38852;BME280;24605;50.092;9.182;2023-02-13T01:36:40;99938.22;;;5.26;100.00
38852;BME280;24605;50.092;9.182;2023-02-13T01:39:09;99940.09;;;5.24;100.00
38852;BME280;24605;50.092;9.182;2023-02-13T01:41:36;99932.44;;;4.89;100.00
38852;BME280;24605;50.092;9.182;2023-02-13T01:44:03;99939.00;;;4.96;100.00
38852;BME280;24605;50.092;9.182;2023-02-13T01:46:30;99935.59;;;4.62;100.00
38852;BME280;24605;50.092;9.182;2023-02-13T01:48:59;99928.50;;;4.32;100.00
38852;BME280;24605;50.092;9.182;2023-02-13T01:51:29;99936.53;;;4.10;100.00
38852;BME280;24605;50.092;9.182;2023-02-13T01:53:57;99928.63;;;3.96;100.00
38852;BME280;24605;50.092;9.182;2023-02-13T01:56:26;99934.72;;;3.95;100.00
38852;BME280;24605;50.092;9.182;2023-02-13T01:58:55;99931.44;;;4.08;100.00
38852;BME280;24605;50.092;9.182;2023-02-13T02:01:22;99926.03;;;3.78;100.00
38852;BME280;24605;50.092;9.182;2023-02-13T02:03:51;99931.44;;;3.56;100.00
38852;BME280;24605;50.092;9.182;2023-02-13T02:06:22;99925.50;;;3.71;100.00
38852;BME280;24605;50.092;9.182;2023-02-13T02:08:50;99921.44;;;3.66;100.00
38852;BME280;24605;50.092;9.182;2023-02-13T02:11:19;99920.44;;;3.51;100.00
38852;BME280;24605;50.092;9.182;2023-02-13T02:13:49;99919.41;;;3.36;100.00
38852;BME280;24605;50.092;9.182;2023-02-13T02:16:16;99916.78;;;3.18;100.00
38852;BME280;24605;50.092;9.182;2023-02-13T02:18:42;99918.63;;;3.16;100.00
38852;BME280;24605;50.092;9.182;2023-02-13T02:21:20;99916.16;;;3.13;100.00
38852;BME280;24605;50.092;9.182;2023-02-13T02:26:39;99886.44;;;2.84;100.00
38852;BME280;24605;50.092;9.182;2023-02-13T02:29:31;99911.03;;;3.31;100.00
38852;BME280;24605;50.092;9.182;2023-02-13T02:32:18;99917.97;;;3.30;100.00
38852;BME280;24605;50.092;9.182;2023-02-13T02:34:51;99915.81;;;3.21;100.00
38852;BME280;24605;50.092;9.182;2023-02-13T02:37:23;99920.16;;;3.20;100.00
38852;BME280;24605;50.092;9.182;2023-02-13T02:39:57;99914.06;;;3.21;100.00
38852;BME280;24605;50.092;9.182;2023-02-13T02:42:29;99906.16;;;3.24;100.00
38852;BME280;24605;50.092;9.182;2023-02-13T02:45:01;99908.88;;;3.21;100.00
38852;BME280;24605;50.092;9.182;2023-02-13T02:47:33;99907.38;;;3.35;100.00
38852;BME280;24605;50.092;9.182;2023-02-13T02:50:26;99911.13;;;3.29;100.00
38852;BME280;24605;50.092;9.182;2023-02-13T02:52:58;99913.78;;;3.08;100.00
38852;BME280;24605;50.092;9.182;2023-02-13T02:55:31;99918.09;;;2.90;100.00
38852;BME280;24605;50.092;9.182;2023-02-13T02:58:02;99919.63;;;2.94;100.00
38852;BME280;24605;50.092;9.182;2023-02-13T03:00:47;99920.88;;;3.05;100.00
38852;BME280;24605;50.092;9.182;2023-02-13T03:03:34;99920.41;;;2.77;100.00
38852;BME280;24605;50.092;9.182;2023-02-13T03:06:19;99919.06;;;2.69;100.00
38852;BME280;24605;50.092;9.182;2023-02-13T03:08:51;99914.28;;;2.59;100.00
38852;BME280;24605;50.092;9.182;2023-02-13T03:11:50;99915.34;;;2.55;100.00
38852;BME280;24605;50.092;9.182;2023-02-13T03:14:37;99922.44;;;2.71;100.00
38852;BME280;24605;50.092;9.182;2023-02-13T03:17:03;99917.47;;;2.66;100.00
38852;BME280;24605;50.092;9.182;2023-02-13T03:19:54;99924.38;;;2.65;100.00
38852;BME280;24605;50.092;9.182;2023-02-13T03:22:41;99917.59;;;2.63;100.00
38852;BME280;24605;50.092;9.182;2023-02-13T03:25:11;99922.06;;;2.59;100.00
38852;BME280;24605;50.092;9.182;2023-02-13T03:27:44;99922.34;;;2.53;100.00
38852;BME280;24605;50.092;9.182;2023-02-13T03:30:33;99918.56;;;2.41;100.00
38852;BME280;24605;50.092;9.182;2023-02-13T03:33:05;99917.66;;;2.42;100.00
38852;BME280;24605;50.092;9.182;2023-02-13T03:35:36;99917.78;;;2.39;100.00
38852;BME280;24605;50.092;9.182;2023-02-13T03:38:24;99920.84;;;2.28;100.00
38852;BME280;24605;50.092;9.182;2023-02-13T03:40:54;99922.78;;;2.23;100.00
38852;BME280;24605;50.092;9.182;2023-02-13T03:43:41;99923.13;;;2.15;100.00
38852;BME280;24605;50.092;9.182;2023-02-13T03:46:10;99920.06;;;2.06;100.00
38852;BME280;24605;50.092;9.182;2023-02-13T03:48:38;99926.50;;;1.97;100.00
38852;BME280;24605;50.092;9.182;2023-02-13T03:51:25;99928.41;;;1.92;100.00
38852;BME280;24605;50.092;9.182;2023-02-13T03:53:53;99931.00;;;1.92;100.00
38852;BME280;24605;50.092;9.182;2023-02-13T03:56:21;99930.63;;;2.01;100.00
38852;BME280;24605;50.092;9.182;2023-02-13T03:59:06;99937.59;;;1.99;100.00
38852;BME280;24605;50.092;9.182;2023-02-13T04:01:46;99938.72;;;1.93;100.00
38852;BME280;24605;50.092;9.182;2023-02-13T04:04:16;99937.78;;;1.94;100.00
38852;BME280;24605;50.092;9.182;2023-02-13T04:06:47;99947.38;;;1.92;100.00
38852;BME280;24605;50.092;9.182;2023-02-13T04:09:15;99943.56;;;2.01;100.00
38852;BME280;24605;50.092;9.182;2023-02-13T04:11:44;99940.06;;;2.02;100.00
38852;BME280;24605;50.092;9.182;2023-02-13T04:14:14;99944.25;;;2.04;100.00
38852;BME280;24605;50.092;9.182;2023-02-13T04:16:45;99939.88;;;2.07;100.00
38852;BME280;24605;50.092;9.182;2023-02-13T04:19:13;99934.97;;;2.00;100.00
38852;BME280;24605;50.092;9.182;2023-02-13T04:21:40;99940.19;;;1.99;100.00
38852;BME280;24605;50.092;9.182;2023-02-13T04:24:08;99936.16;;;1.92;100.00
38852;BME280;24605;50.092;9.182;2023-02-13T04:26:35;99939.09;;;1.84;100.00
38852;BME280;24605;50.092;9.182;2023-02-13T04:29:03;99941.53;;;1.87;100.00
38852;BME280;24605;50.092;9.182;2023-02-13T04:31:29;99941.59;;;1.85;100.00
38852;BME280;24605;50.092;9.182;2023-02-13T04:33:55;99940.72;;;1.86;100.00
38852;BME280;24605;50.092;9.182;2023-02-13T04:36:22;99943.38;;;1.85;100.00
38852;BME280;24605;50.092;9.182;2023-02-13T04:38:48;99939.28;;;1.79;100.00
38852;BME280;24605;50.092;9.182;2023-02-13T04:41:16;99934.41;;;1.71;100.00
38852;BME280;24605;50.092;9.182;2023-02-13T04:43:43;99944.13;;;1.66;100.00
38852;BME280;24605;50.092;9.182;2023-02-13T04:46:09;99937.38;;;1.62;100.00
38852;BME280;24605;50.092;9.182;2023-02-13T04:48:35;99936.03;;;1.53;100.00
38852;BME280;24605;50.092;9.182;2023-02-13T04:51:02;99938.53;;;1.55;100.00
38852;BME280;24605;50.092;9.182;2023-02-13T04:53:28;99932.47;;;1.56;100.00
38852;BME280;24605;50.092;9.182;2023-02-13T04:55:54;99928.09;;;1.58;100.00
38852;BME280;24605;50.092;9.182;2023-02-13T04:58:22;99931.56;;;1.57;100.00
38852;BME280;24605;50.092;9.182;2023-02-13T05:00:48;99930.84;;;1.53;100.00
38852;BME280;24605;50.092;9.182;2023-02-13T05:03:14;99930.88;;;1.52;100.00
38852;BME280;24605;50.092;9.182;2023-02-13T05:05:41;99927.13;;;1.38;100.00
38852;BME280;24605;50.092;9.182;2023-02-13T05:08:08;99934.03;;;1.38;100.00
38852;BME280;24605;50.092;9.182;2023-02-13T05:10:37;99938.44;;;1.36;100.00
38852;BME280;24605;50.092;9.182;2023-02-13T05:13:03;99936.78;;;1.33;100.00
38852;BME280;24605;50.092;9.182;2023-02-13T05:15:30;99936.38;;;1.22;100.00
38852;BME280;24605;50.092;9.182;2023-02-13T05:17:57;99857.69;;;0.86;100.00
38852;BME280;24605;50.092;9.182;2023-02-13T05:20:23;99936.75;;;1.35;100.00
38852;BME280;24605;50.092;9.182;2023-02-13T05:22:50;99941.75;;;1.39;100.00
38852;BME280;24605;50.092;9.182;2023-02-13T05:25:35;99931.31;;;1.41;100.00
38852;BME280;24605;50.092;9.182;2023-02-13T05:28:02;99938.53;;;1.33;100.00
38852;BME280;24605;50.092;9.182;2023-02-13T05:30:28;99931.03;;;1.27;100.00
38852;BME280;24605;50.092;9.182;2023-02-13T05:32:55;99929.03;;;1.33;100.00
38852;BME280;24605;50.092;9.182;2023-02-13T05:35:21;99930.16;;;1.28;100.00
38852;BME280;24605;50.092;9.182;2023-02-13T05:37:48;99923.34;;;1.25;100.00
38852;BME280;24605;50.092;9.182;2023-02-13T05:40:15;99927.13;;;1.16;100.00
38852;BME280;24605;50.092;9.182;2023-02-13T05:42:43;99928.84;;;1.16;100.00
38852;BME280;24605;50.092;9.182;2023-02-13T05:45:10;99934.28;;;1.09;100.00
38852;BME280;24605;50.092;9.182;2023-02-13T05:47:36;99937.75;;;1.08;100.00
38852;BME280;24605;50.092;9.182;2023-02-13T05:50:04;99937.88;;;1.05;100.00
38852;BME280;24605;50.092;9.182;2023-02-13T05:52:31;99938.53;;;1.11;100.00
38852;BME280;24605;50.092;9.182;2023-02-13T05:54:57;99934.63;;;1.22;100.00
38852;BME280;24605;50.092;9.182;2023-02-13T05:57:25;99939.34;;;1.35;100.00
38852;BME280;24605;50.092;9.182;2023-02-13T05:59:51;99941.66;;;1.41;100.00
38852;BME280;24605;50.092;9.182;2023-02-13T06:02:18;99943.25;;;1.45;100.00
38852;BME280;24605;50.092;9.182;2023-02-13T06:04:44;99948.00;;;1.54;100.00
38852;BME280;24605;50.092;9.182;2023-02-13T06:07:12;99940.41;;;1.51;100.00
38852;BME280;24605;50.092;9.182;2023-02-13T06:09:38;99945.16;;;1.40;100.00
38852;BME280;24605;50.092;9.182;2023-02-13T06:12:04;99945.47;;;1.32;100.00
38852;BME280;24605;50.092;9.182;2023-02-13T06:14:31;99943.97;;;1.27;100.00
38852;BME280;24605;50.092;9.182;2023-02-13T06:16:57;99946.03;;;1.39;100.00
38852;BME280;24605;50.092;9.182;2023-02-13T06:19:23;99945.22;;;1.38;100.00
38852;BME280;24605;50.092;9.182;2023-02-13T06:21:50;99944.19;;;1.43;100.00
38852;BME280;24605;50.092;9.182;2023-02-13T06:24:17;99936.78;;;1.33;100.00
38852;BME280;24605;50.092;9.182;2023-02-13T06:26:44;99939.63;;;1.27;100.00
38852;BME280;24605;50.092;9.182;2023-02-13T06:29:10;99950.41;;;1.15;100.00
38852;BME280;24605;50.092;9.182;2023-02-13T06:31:36;99943.81;;;1.07;100.00
38852;BME280;24605;50.092;9.182;2023-02-13T06:34:03;99949.53;;;1.16;100.00
38852;BME280;24605;50.092;9.182;2023-02-13T06:36:29;99937.50;;;1.15;100.00
38852;BME280;24605;50.092;9.182;2023-02-13T06:38:55;99938.53;;;1.11;100.00
38852;BME280;24605;50.092;9.182;2023-02-13T06:41:23;99945.88;;;1.21;100.00
38852;BME280;24605;50.092;9.182;2023-02-13T06:43:49;99944.50;;;1.13;100.00
38852;BME280;24605;50.092;9.182;2023-02-13T06:46:15;99943.28;;;1.21;100.00
38852;BME280;24605;50.092;9.182;2023-02-13T06:48:42;99947.25;;;1.30;100.00
38852;BME280;24605;50.092;9.182;2023-02-13T06:51:08;99949.88;;;1.29;100.00
38852;BME280;24605;50.092;9.182;2023-02-13T06:53:34;99946.94;;;1.16;100.00
38852;BME280;24605;50.092;9.182;2023-02-13T06:56:02;99952.09;;;1.16;100.00
38852;BME280;24605;50.092;9.182;2023-02-13T06:58:30;99939.69;;;1.25;100.00
38852;BME280;24605;50.092;9.182;2023-02-13T07:00:57;99937.75;;;1.31;100.00
38852;BME280;24605;50.092;9.182;2023-02-13T07:03:24;99939.44;;;1.32;100.00
38852;BME280;24605;50.092;9.182;2023-02-13T07:05:50;99938.81;;;1.47;100.00
38852;BME280;24605;50.092;9.182;2023-02-13T07:08:17;99941.47;;;1.46;100.00
38852;BME280;24605;50.092;9.182;2023-02-13T07:10:43;99940.06;;;1.38;100.00
38852;BME280;24605;50.092;9.182;2023-02-13T07:13:09;99948.22;;;1.50;100.00
38852;BME280;24605;50.092;9.182;2023-02-13T07:15:37;99944.72;;;1.51;100.00
38852;BME280;24605;50.092;9.182;2023-02-13T07:18:04;99951.81;;;1.46;100.00
38852;BME280;24605;50.092;9.182;2023-02-13T07:20:30;99949.59;;;1.59;100.00
38852;BME280;24605;50.092;9.182;2023-02-13T07:22:57;99952.25;;;1.57;100.00
38852;BME280;24605;50.092;9.182;2023-02-13T07:25:23;99954.94;;;1.54;100.00
38852;BME280;24605;50.092;9.182;2023-02-13T07:27:50;99952.44;;;1.52;100.00
38852;BME280;24605;50.092;9.182;2023-02-13T07:30:16;99960.91;;;1.56;100.00
38852;BME280;24605;50.092;9.182;2023-02-13T07:32:44;99958.16;;;1.59;100.00
38852;BME280;24605;50.092;9.182;2023-02-13T07:35:10;99959.81;;;1.62;100.00
38852;BME280;24605;50.092;9.182;2023-02-13T07:37:36;99957.94;;;1.65;100.00
38852;BME280;24605;50.092;9.182;2023-02-13T07:40:03;99967.53;;;1.84;100.00
38852;BME280;24605;50.092;9.182;2023-02-13T07:42:31;99971.22;;;1.78;100.00
38852;BME280;24605;50.092;9.182;2023-02-13T07:44:58;99959.72;;;1.85;100.00
38852;BME280;24605;50.092;9.182;2023-02-13T07:47:24;99957.47;;;1.98;100.00
38852;BME280;24605;50.092;9.182;2023-02-13T07:49:52;99963.16;;;2.07;100.00
38852;BME280;24605;50.092;9.182;2023-02-13T07:52:19;99959.84;;;2.03;100.00
38852;BME280;24605;50.092;9.182;2023-02-13T07:54:45;99963.06;;;2.08;100.00
38852;BME280;24605;50.092;9.182;2023-02-13T07:57:12;99965.84;;;2.03;100.00
38852;BME280;24605;50.092;9.182;2023-02-13T07:59:38;99961.53;;;2.04;100.00
38852;BME280;24605;50.092;9.182;2023-02-13T08:02:05;99965.81;;;2.05;100.00
38852;BME280;24605;50.092;9.182;2023-02-13T08:04:31;99961.16;;;2.13;100.00
38852;BME280;24605;50.092;9.182;2023-02-13T08:06:59;99969.22;;;2.26;100.00
38852;BME280;24605;50.092;9.182;2023-02-13T08:09:25;99967.22;;;2.33;100.00
38852;BME280;24605;50.092;9.182;2023-02-13T08:12:08;99974.13;;;2.32;100.00
38852;BME280;24605;50.092;9.182;2023-02-13T08:14:35;99978.81;;;2.64;100.00
38852;BME280;24605;50.092;9.182;2023-02-13T08:17:01;99967.69;;;2.62;100.00
38852;BME280;24605;50.092;9.182;2023-02-13T08:19:28;99978.22;;;2.78;100.00
38852;BME280;24605;50.092;9.182;2023-02-13T08:21:54;99977.47;;;2.95;100.00
38852;BME280;24605;50.092;9.182;2023-02-13T08:24:22;99979.63;;;3.04;100.00
38852;BME280;24605;50.092;9.182;2023-02-13T08:26:48;99979.84;;;3.00;100.00
38852;BME280;24605;50.092;9.182;2023-02-13T08:29:15;99992.88;;;3.17;100.00
38852;BME280;24605;50.092;9.182;2023-02-13T08:31:41;99983.75;;;3.27;100.00
38852;BME280;24605;50.092;9.182;2023-02-13T08:34:07;99988.44;;;3.38;100.00
38852;BME280;24605;50.092;9.182;2023-02-13T08:36:34;99979.47;;;3.45;100.00
38852;BME280;24605;50.092;9.182;2023-02-13T08:39:00;99985.25;;;3.51;100.00
38852;BME280;24605;50.092;9.182;2023-02-13T08:41:28;99978.38;;;3.50;100.00
38852;BME280;24605;50.092;9.182;2023-02-13T08:43:54;99982.88;;;3.65;100.00
38852;BME280;24605;50.092;9.182;2023-02-13T08:46:20;99987.59;;;3.74;100.00
38852;BME280;24605;50.092;9.182;2023-02-13T08:48:53;99977.97;;;3.76;100.00
38852;BME280;24605;50.092;9.182;2023-02-13T08:51:19;99984.03;;;3.95;100.00
38852;BME280;24605;50.092;9.182;2023-02-13T08:53:45;99985.16;;;4.06;100.00
38852;BME280;24605;50.092;9.182;2023-02-13T08:56:12;99994.78;;;4.04;100.00
38852;BME280;24605;50.092;9.182;2023-02-13T08:58:39;99987.91;;;4.03;100.00
38852;BME280;24605;50.092;9.182;2023-02-13T09:01:06;99990.44;;;4.22;100.00
38852;BME280;24605;50.092;9.182;2023-02-13T09:03:33;99985.47;;;4.35;100.00
38852;BME280;24605;50.092;9.182;2023-02-13T09:05:59;99984.84;;;4.30;100.00
38852;BME280;24605;50.092;9.182;2023-02-13T09:08:26;99992.28;;;4.54;100.00
38852;BME280;24605;50.092;9.182;2023-02-13T09:10:56;99990.88;;;4.48;100.00
38852;BME280;24605;50.092;9.182;2023-02-13T09:13:22;99991.22;;;4.58;100.00
38852;BME280;24605;50.092;9.182;2023-02-13T09:15:50;99989.91;;;4.67;100.00
38852;BME280;24605;50.092;9.182;2023-02-13T09:18:16;99993.88;;;4.74;100.00
38852;BME280;24605;50.092;9.182;2023-02-13T09:20:42;99984.81;;;4.81;100.00
38852;BME280;24605;50.092;9.182;2023-02-13T09:23:09;99978.28;;;4.90;100.00
38852;BME280;24605;50.092;9.182;2023-02-13T09:25:35;99982.50;;;4.93;100.00
38852;BME280;24605;50.092;9.182;2023-02-13T09:28:01;99988.03;;;5.02;100.00
38852;BME280;24605;50.092;9.182;2023-02-13T09:30:28;99982.50;;;4.93;100.00
38852;BME280;24605;50.092;9.182;2023-02-13T09:32:55;99987.47;;;4.97;100.00
38852;BME280;24605;50.092;9.182;2023-02-13T09:35:22;99984.53;;;5.04;100.00
38852;BME280;24605;50.092;9.182;2023-02-13T09:37:48;99985.94;;;5.25;100.00
38852;BME280;24605;50.092;9.182;2023-02-13T09:40:15;99983.09;;;5.30;100.00
38852;BME280;24605;50.092;9.182;2023-02-13T09:42:43;99983.59;;;5.37;100.00
38852;BME280;24605;50.092;9.182;2023-02-13T09:45:10;99990.22;;;5.42;100.00
38852;BME280;24605;50.092;9.182;2023-02-13T09:47:38;99925.50;;;5.06;100.00
38852;BME280;24605;50.092;9.182;2023-02-13T09:50:09;99983.19;;;5.44;100.00
38852;BME280;24605;50.092;9.182;2023-02-13T09:52:37;99992.22;;;5.53;100.00
38852;BME280;24605;50.092;9.182;2023-02-13T09:55:12;99984.66;;;5.64;100.00
38852;BME280;24605;50.092;9.182;2023-02-13T09:57:40;99983.53;;;5.69;100.00
38852;BME280;24605;50.092;9.182;2023-02-13T10:00:10;99985.22;;;5.70;100.00
38852;BME280;24605;50.092;9.182;2023-02-13T10:05:27;99993.53;;;5.76;100.00
38852;BME280;24605;50.092;9.182;2023-02-13T10:07:59;99992.44;;;5.80;100.00
38852;BME280;24605;50.092;9.182;2023-02-13T10:10:32;99986.63;;;5.91;100.00
38852;BME280;24605;50.092;9.182;2023-02-13T10:13:02;99996.88;;;5.94;100.00
38852;BME280;24605;50.092;9.182;2023-02-13T10:15:35;99996.66;;;5.97;100.00
38852;BME280;24605;50.092;9.182;2023-02-13T10:18:09;99992.94;;;6.18;100.00
38852;BME280;24605;50.092;9.182;2023-02-13T10:20:38;99993.53;;;6.23;100.00
38852;BME280;24605;50.092;9.182;2023-02-13T10:23:11;100001.78;;;6.15;100.00
38852;BME280;24605;50.092;9.182;2023-02-13T10:25:43;99996.13;;;6.23;100.00
38852;BME280;24605;50.092;9.182;2023-02-13T10:28:12;99996.69;;;6.28;100.00
38852;BME280;24605;50.092;9.182;2023-02-13T10:30:42;99992.63;;;6.38;100.00
38852;BME280;24605;50.092;9.182;2023-02-13T10:33:12;99992.16;;;6.46;100.00
38852;BME280;24605;50.092;9.182;2023-02-13T10:35:46;99996.44;;;6.62;100.00
38852;BME280;24605;50.092;9.182;2023-02-13T10:38:14;99987.88;;;6.59;100.00
38852;BME280;24605;50.092;9.182;2023-02-13T10:40:44;99996.06;;;6.53;100.00
38852;BME280;24605;50.092;9.182;2023-02-13T10:43:13;99989.09;;;6.54;100.00
38852;BME280;24605;50.092;9.182;2023-02-13T10:45:46;99981.75;;;6.61;100.00
38852;BME280;24605;50.092;9.182;2023-02-13T10:48:18;99977.19;;;6.64;100.00
38852;BME280;24605;50.092;9.182;2023-02-13T10:50:52;99980.91;;;6.74;100.00
38852;BME280;24605;50.092;9.182;2023-02-13T10:53:22;99972.63;;;6.68;100.00
38852;BME280;24605;50.092;9.182;2023-02-13T10:55:54;99971.59;;;6.85;100.00
38852;BME280;24605;50.092;9.182;2023-02-13T10:58:25;99971.97;;;6.93;100.00
38852;BME280;24605;50.092;9.182;2023-02-13T11:00:58;99968.78;;;7.02;100.00
38852;BME280;24605;50.092;9.182;2023-02-13T11:03:27;99965.25;;;7.03;100.00
38852;BME280;24605;50.092;9.182;2023-02-13T11:05:56;99956.09;;;7.11;100.00
38852;BME280;24605;50.092;9.182;2023-02-13T11:08:24;99959.06;;;7.19;100.00
38852;BME280;24605;50.092;9.182;2023-02-13T11:10:51;99952.81;;;7.21;100.00
38852;BME280;24605;50.092;9.182;2023-02-13T11:13:18;99949.78;;;7.28;100.00
38852;BME280;24605;50.092;9.182;2023-02-13T11:15:58;99956.50;;;7.32;100.00
38852;BME280;24605;50.092;9.182;2023-02-13T11:18:25;99949.47;;;7.47;100.00
38852;BME280;24605;50.092;9.182;2023-02-13T11:21:06;99947.06;;;7.44;100.00
38852;BME280;24605;50.092;9.182;2023-02-13T11:23:36;99945.66;;;7.38;100.00
38852;BME280;24605;50.092;9.182;2023-02-13T11:26:04;99948.97;;;7.55;100.00
38852;BME280;24605;50.092;9.182;2023-02-13T11:28:34;99940.94;;;7.58;99.64
38852;BME280;24605;50.092;9.182;2023-02-13T11:31:09;99939.81;;;7.62;100.00
38852;BME280;24605;50.092;9.182;2023-02-13T11:33:35;99937.22;;;7.75;98.11
38852;BME280;24605;50.092;9.182;2023-02-13T11:36:07;99938.13;;;7.61;97.42
38852;BME280;24605;50.092;9.182;2023-02-13T11:38:33;99944.31;;;7.73;99.04
38852;BME280;24605;50.092;9.182;2023-02-13T11:41:04;99940.81;;;7.87;96.96
38852;BME280;24605;50.092;9.182;2023-02-13T11:43:32;99936.94;;;7.92;97.29
38852;BME280;24605;50.092;9.182;2023-02-13T11:46:01;99933.94;;;7.98;94.92
38852;BME280;24605;50.092;9.182;2023-02-13T11:48:28;99940.59;;;8.03;94.84
38852;BME280;24605;50.092;9.182;2023-02-13T11:50:55;99936.13;;;8.05;95.02
38852;BME280;24605;50.092;9.182;2023-02-13T11:53:23;99928.50;;;8.14;94.09
38852;BME280;24605;50.092;9.182;2023-02-13T11:56:00;99928.81;;;8.23;92.86
38852;BME280;24605;50.092;9.182;2023-02-13T11:58:27;99929.84;;;8.20;92.58
38852;BME280;24605;50.092;9.182;2023-02-13T12:01:06;99925.59;;;8.19;92.30
38852;BME280;24605;50.092;9.182;2023-02-13T12:03:33;99927.66;;;8.27;91.58
38852;BME280;24605;50.092;9.182;2023-02-13T12:06:00;99926.22;;;8.36;92.10
38852;BME280;24605;50.092;9.182;2023-02-13T12:08:28;99924.22;;;8.39;90.41
38852;BME280;24605;50.092;9.182;2023-02-13T12:10:55;99918.69;;;8.44;92.18
38852;BME280;24605;50.092;9.182;2023-02-13T12:13:23;99926.94;;;8.64;90.17
38852;BME280;24605;50.092;9.182;2023-02-13T12:15:54;99924.84;;;8.69;90.64
38852;BME280;24605;50.092;9.182;2023-02-13T12:18:25;99926.72;;;8.67;89.56
38852;BME280;24605;50.092;9.182;2023-02-13T12:20:56;99927.00;;;8.75;90.77
38852;BME280;24605;50.092;9.182;2023-02-13T12:23:30;99925.56;;;8.71;87.68
38852;BME280;24605;50.092;9.182;2023-02-13T12:28:53;99917.69;;;8.84;87.68
38852;BME280;24605;50.092;9.182;2023-02-13T12:31:30;99919.53;;;8.94;87.31
38852;BME280;24605;50.092;9.182;2023-02-13T12:34:10;99914.59;;;9.03;86.23
38852;BME280;24605;50.092;9.182;2023-02-13T12:36:43;99911.25;;;8.76;86.29
38852;BME280;24605;50.092;9.182;2023-02-13T12:39:17;99908.38;;;8.80;86.15
38852;BME280;24605;50.092;9.182;2023-02-13T12:41:53;99918.59;;;8.96;85.82
38852;BME280;24605;50.092;9.182;2023-02-13T12:44:27;99920.13;;;9.11;84.27
38852;BME280;24605;50.092;9.182;2023-02-13T12:46:57;99912.53;;;9.19;83.44
38852;BME280;24605;50.092;9.182;2023-02-13T12:49:45;99911.28;;;9.25;83.06
38852;BME280;24605;50.092;9.182;2023-02-13T12:52:19;99898.31;;;9.23;82.16
38852;BME280;24605;50.092;9.182;2023-02-13T12:54:52;99906.53;;;9.30;82.90
38852;BME280;24605;50.092;9.182;2023-02-13T12:57:29;99898.13;;;9.38;81.83
38852;BME280;24605;50.092;9.182;2023-02-13T13:00:04;99903.28;;;9.27;80.63
38852;BME280;24605;50.092;9.182;2023-02-13T13:02:44;99897.84;;;9.30;80.78
38852;BME280;24605;50.092;9.182;2023-02-13T13:05:16;99891.00;;;9.40;81.05
38852;BME280;24605;50.092;9.182;2023-02-13T13:08:03;99890.31;;;9.49;80.01
38852;BME280;24605;50.092;9.182;2023-02-13T13:10:42;99889.13;;;9.53;79.05
38852;BME280;24605;50.092;9.182;2023-02-13T13:16:08;99890.13;;;9.64;78.84
38852;BME280;24605;50.092;9.182;2023-02-13T13:18:41;99878.69;;;9.65;78.81
38852;BME280;24605;50.092;9.182;2023-02-13T13:21:16;99881.09;;;9.68;76.91
38852;BME280;24605;50.092;9.182;2023-02-13T13:23:48;99872.72;;;9.63;77.17
38852;BME280;24605;50.092;9.182;2023-02-13T13:26:19;99870.63;;;9.68;76.31